createdAt,value
2022-08-25T00:01:41.294Z,4.75
2022-08-25T00:04:11.914Z,5.88
2022-08-25T00:06:44.140Z,3.00
2022-08-25T00:09:13.878Z,6.85
2022-08-25T00:11:41.942Z,5.38
2022-08-25T00:14:17.272Z,5.38
2022-08-25T00:16:44.844Z,1.98
2022-08-25T00:19:15.448Z,2.75
2022-08-25T00:21:44.192Z,4.10
2022-08-25T00:24:13.007Z,6.13
2022-08-25T00:26:45.984Z,3.58
2022-08-25T00:29:14.327Z,3.75
2022-08-25T00:31:42.233Z,4.85
2022-08-25T00:34:13.596Z,5.93
2022-08-25T00:36:41.343Z,6.90
2022-08-25T00:39:09.913Z,3.78
2022-08-25T00:41:39.701Z,5.47
2022-08-25T00:44:09.414Z,3.67
2022-08-25T00:46:43.212Z,3.63
2022-08-25T00:49:24.774Z,2.90
2022-08-25T00:52:04.459Z,5.40
2022-08-25T00:54:42.471Z,4.70
2022-08-25T00:57:13.248Z,4.65
2022-08-25T00:59:43.239Z,4.80
2022-08-25T01:02:13.942Z,1.83
2022-08-25T01:04:48.924Z,2.55
2022-08-25T01:07:18.834Z,3.72
2022-08-25T01:09:48.432Z,2.70
2022-08-25T01:12:16.044Z,1.95
2022-08-25T01:14:48.433Z,4.07
2022-08-25T01:17:16.245Z,4.95
2022-08-25T01:19:43.554Z,3.40
2022-08-25T01:22:12.178Z,3.40
2022-08-25T01:24:51.008Z,2.40
2022-08-25T01:27:18.520Z,4.38
2022-08-25T01:29:46.529Z,2.92
2022-08-25T01:32:15.014Z,1.98
2022-08-25T01:34:45.012Z,3.60
2022-08-25T01:37:16.016Z,3.78
2022-08-25T01:39:44.722Z,5.60
2022-08-25T01:42:38.116Z,2.72
2022-08-25T01:45:05.887Z,3.17
2022-08-25T01:47:33.634Z,4.70
2022-08-25T01:50:00.955Z,5.65
2022-08-25T01:52:37.403Z,2.83
2022-08-25T01:55:05.138Z,1.98
2022-08-25T01:57:32.647Z,4.32
2022-08-25T02:00:00.612Z,3.75
2022-08-25T02:02:28.268Z,5.93
2022-08-25T02:04:59.432Z,2.55
2022-08-25T02:07:27.169Z,3.50
2022-08-25T02:09:54.446Z,3.50
2022-08-25T02:12:21.631Z,7.10
2022-08-25T02:15:09.826Z,6.07
2022-08-25T02:17:37.172Z,4.10
2022-08-25T02:20:08.757Z,3.35
2022-08-25T02:22:35.943Z,5.00
2022-08-25T02:25:03.719Z,2.17
2022-08-25T02:27:31.191Z,4.88
2022-08-25T02:29:58.363Z,4.65
2022-08-25T02:32:26.079Z,4.63
2022-08-25T02:34:53.548Z,2.65
2022-08-25T02:37:20.969Z,4.57
2022-08-25T02:39:48.446Z,3.17
2022-08-25T02:42:15.746Z,6.20
2022-08-25T02:44:43.410Z,6.43
2022-08-25T02:47:10.629Z,3.30
2022-08-25T02:49:37.958Z,4.63
2022-08-25T02:52:05.472Z,4.63
2022-08-25T02:54:32.925Z,5.32
2022-08-25T02:57:00.414Z,5.43
2022-08-25T02:59:27.777Z,8.23
2022-08-25T03:01:56.023Z,4.15
2022-08-25T03:04:23.238Z,3.13
2022-08-25T03:06:50.564Z,6.47
2022-08-25T03:09:18.484Z,7.65
2022-08-25T03:11:46.227Z,5.78
2022-08-25T03:14:13.752Z,4.38
2022-08-25T03:16:43.030Z,3.33
2022-08-25T03:19:14.122Z,5.90
2022-08-25T03:21:41.789Z,6.35
2022-08-25T03:24:09.096Z,5.63
2022-08-25T03:27:08.583Z,6.18
2022-08-25T03:29:35.928Z,8.30
2022-08-25T03:32:03.382Z,3.47
2022-08-25T03:34:32.030Z,5.97
2022-08-25T03:36:59.990Z,3.38
2022-08-25T03:39:27.938Z,5.30
2022-08-25T03:41:55.598Z,5.45
2022-08-25T03:44:23.117Z,4.28
2022-08-25T03:46:52.913Z,4.85
2022-08-25T03:49:23.845Z,3.83
2022-08-25T03:51:53.742Z,4.10
2022-08-25T03:54:24.015Z,6.40
2022-08-25T03:56:51.943Z,5.72
2022-08-25T03:59:19.677Z,5.68
2022-08-25T04:01:52.625Z,8.38
2022-08-25T04:04:22.046Z,5.80
2022-08-25T04:06:49.343Z,5.70
2022-08-25T04:09:16.852Z,4.47
2022-08-25T04:11:44.074Z,3.38
2022-08-25T04:14:15.733Z,4.05
2022-08-25T04:16:45.470Z,6.60
2022-08-25T04:19:13.225Z,6.97
2022-08-25T04:21:41.787Z,4.40
2022-08-25T04:24:11.081Z,4.78
2022-08-25T04:26:44.795Z,3.70
2022-08-25T04:29:14.762Z,9.00
2022-08-25T04:31:47.061Z,6.70
2022-08-25T04:34:30.767Z,6.72
2022-08-25T04:37:01.321Z,3.92
2022-08-25T04:39:29.503Z,8.70
2022-08-25T04:41:56.700Z,4.18
2022-08-25T04:44:24.005Z,6.47
2022-08-25T04:46:51.295Z,3.40
2022-08-25T04:49:18.940Z,8.43
2022-08-25T04:51:46.129Z,5.75
2022-08-25T04:54:22.400Z,4.03
2022-08-25T04:56:54.061Z,3.47
2022-08-25T04:59:22.051Z,5.05
2022-08-25T05:01:52.371Z,8.45
2022-08-25T05:04:27.676Z,4.90
2022-08-25T05:06:57.440Z,5.32
2022-08-25T05:09:25.878Z,9.65
2022-08-25T05:11:53.843Z,4.07
2022-08-25T05:14:25.625Z,5.65
2022-08-25T05:16:55.061Z,5.43
2022-08-25T05:19:24.085Z,5.03
2022-08-25T05:21:51.858Z,3.13
2022-08-25T05:24:19.150Z,8.75
2022-08-25T05:26:47.107Z,8.25
2022-08-25T05:29:14.592Z,4.88
2022-08-25T05:31:47.033Z,8.32
2022-08-25T05:34:15.772Z,5.93
2022-08-25T05:36:43.645Z,5.65
2022-08-25T05:39:11.435Z,7.80
2022-08-25T05:41:38.835Z,9.75
2022-08-25T05:44:06.152Z,8.25
2022-08-25T05:46:33.416Z,7.13
2022-08-25T05:49:00.831Z,4.03
2022-08-25T05:51:28.401Z,8.07
2022-08-25T05:53:55.715Z,6.88
2022-08-25T05:56:23.011Z,5.00
2022-08-25T05:58:51.686Z,4.95
2022-08-25T06:01:40.241Z,6.28
2022-08-25T06:04:11.245Z,4.80
2022-08-25T06:06:39.683Z,7.00
2022-08-25T06:09:08.933Z,6.15
2022-08-25T06:11:40.143Z,12.57
2022-08-25T06:14:11.295Z,4.57
2022-08-25T06:16:40.486Z,3.75
2022-08-25T06:19:09.750Z,5.30
2022-08-25T06:21:39.794Z,8.98
2022-08-25T06:24:12.107Z,7.07
2022-08-25T06:26:42.161Z,6.25
2022-08-25T06:29:09.484Z,5.72
2022-08-25T06:31:36.769Z,7.22
2022-08-25T06:34:04.065Z,4.55
2022-08-25T06:36:31.347Z,7.30
2022-08-25T06:38:58.628Z,11.60
2022-08-25T06:41:29.937Z,5.78
2022-08-25T06:44:05.821Z,5.00
2022-08-25T06:46:36.496Z,6.50
2022-08-25T06:49:06.299Z,7.55
2022-08-25T06:51:36.064Z,4.75
2022-08-25T06:54:05.426Z,5.50
2022-08-25T06:56:33.044Z,6.35
2022-08-25T06:59:05.093Z,11.05
2022-08-25T07:01:32.836Z,9.88
2022-08-25T07:04:02.302Z,12.27
2022-08-25T07:06:32.092Z,7.03
2022-08-25T07:08:59.750Z,7.40
2022-08-25T07:11:27.076Z,12.48
2022-08-25T07:13:54.794Z,6.38
2022-08-25T07:16:22.336Z,9.27
2022-08-25T07:18:50.906Z,5.35
2022-08-25T07:21:21.726Z,11.52
2022-08-25T07:23:52.679Z,7.68
2022-08-25T07:26:36.795Z,6.88
2022-08-25T07:29:10.359Z,9.50
2022-08-25T07:31:38.134Z,9.88
2022-08-25T07:34:25.778Z,10.50
2022-08-25T07:36:55.092Z,13.73
2022-08-25T07:39:23.791Z,14.15
2022-08-25T07:41:52.769Z,16.02
2022-08-25T07:44:22.203Z,10.05
2022-08-25T07:46:50.958Z,7.97
2022-08-25T07:49:23.364Z,8.75
2022-08-25T07:52:05.680Z,13.38
2022-08-25T07:54:37.978Z,4.63
2022-08-25T07:57:08.479Z,18.95
2022-08-25T07:59:40.273Z,14.68
2022-08-25T08:02:18.156Z,25.88
2022-08-25T08:04:53.490Z,18.05
2022-08-25T08:10:00.413Z,12.77
2022-08-25T08:12:38.599Z,15.75
2022-08-25T08:15:10.512Z,18.90
2022-08-25T08:17:39.858Z,15.38
2022-08-25T08:20:10.070Z,11.55
2022-08-25T08:22:42.004Z,14.65
2022-08-25T08:25:13.682Z,14.43
2022-08-25T08:27:46.468Z,8.50
2022-08-25T08:30:14.561Z,9.43
2022-08-25T08:33:06.303Z,12.02
2022-08-25T08:35:29.251Z,8.95
2022-08-25T08:37:56.445Z,15.52
2022-08-25T08:40:24.654Z,5.15
2022-08-25T08:43:06.793Z,9.48
2022-08-25T08:45:45.399Z,14.10
2022-08-25T08:48:12.814Z,12.90
2022-08-25T08:51:09.803Z,18.38
2022-08-25T08:53:53.171Z,10.13
2022-08-25T08:56:30.800Z,6.97
2022-08-25T08:59:06.157Z,19.75
2022-08-25T09:01:47.579Z,5.10
2022-08-25T09:04:28.149Z,11.98
2022-08-25T09:06:57.354Z,6.47
2022-08-25T09:09:31.061Z,7.68
2022-08-25T09:12:12.523Z,9.88
2022-08-25T09:14:53.916Z,10.82
2022-08-25T09:17:34.701Z,14.90
2022-08-25T09:20:37.082Z,10.57
2022-08-25T09:23:04.225Z,15.95
2022-08-25T09:26:02.229Z,11.35
2022-08-25T09:28:51.504Z,12.43
2022-08-25T09:31:32.090Z,10.10
2022-08-25T09:34:02.863Z,9.00
2022-08-25T09:36:35.429Z,10.77
2022-08-25T09:41:43.402Z,8.77
2022-08-25T09:44:22.100Z,12.85
2022-08-25T09:47:02.398Z,10.38
2022-08-25T09:49:39.790Z,9.98
2022-08-25T09:52:32.991Z,8.98
2022-08-25T09:55:27.903Z,15.30
2022-08-25T09:57:57.658Z,10.77
2022-08-25T10:00:35.159Z,12.57
2022-08-25T10:03:05.896Z,12.57
2022-08-25T10:05:36.691Z,13.88
2022-08-25T10:08:14.691Z,15.88
2022-08-25T10:10:55.382Z,12.77
2022-08-25T10:13:34.978Z,14.30
2022-08-25T10:16:24.620Z,7.75
2022-08-25T10:19:10.140Z,18.05
2022-08-25T10:21:40.744Z,11.52
2022-08-25T10:24:11.302Z,14.90
2022-08-25T10:27:08.866Z,11.85
2022-08-25T10:30:07.091Z,16.85
2022-08-25T10:32:44.245Z,15.13
2022-08-25T10:35:32.821Z,30.13
2022-08-25T10:38:43.521Z,15.25
2022-08-25T10:41:20.218Z,12.32
2022-08-25T10:43:48.719Z,9.95
2022-08-25T10:46:28.955Z,14.82
2022-08-25T10:49:03.969Z,11.18
2022-08-25T10:51:53.933Z,14.32
2022-08-25T10:54:39.137Z,10.80
2022-08-25T10:57:14.002Z,10.88
2022-08-25T11:00:13.083Z,10.38
2022-08-25T11:03:00.331Z,16.67
2022-08-25T11:05:37.337Z,15.18
2022-08-25T11:08:20.045Z,15.90
2022-08-25T11:10:57.257Z,17.67
2022-08-25T11:13:34.161Z,16.67
2022-08-25T11:16:19.840Z,16.17
2022-08-25T11:18:54.541Z,7.90
2022-08-25T11:21:49.840Z,20.02
2022-08-25T11:24:27.873Z,14.02
2022-08-25T11:26:57.576Z,15.57
2022-08-25T11:29:33.777Z,16.10
2022-08-25T11:32:02.183Z,11.32
2022-08-25T11:34:35.332Z,10.95
2022-08-25T11:37:28.119Z,8.55
2022-08-25T11:40:11.836Z,12.50
2022-08-25T11:43:11.962Z,16.38
2022-08-25T11:45:55.231Z,12.77
2022-08-25T11:48:43.352Z,12.30
2022-08-25T11:51:33.759Z,11.90
2022-08-25T11:54:22.080Z,10.00
2022-08-25T11:57:06.712Z,13.82
2022-08-25T11:59:52.524Z,14.25
2022-08-25T12:02:51.072Z,12.52
2022-08-25T12:05:22.158Z,22.58
2022-08-25T12:08:14.327Z,15.30
2022-08-25T12:11:10.415Z,9.32
2022-08-25T12:13:50.736Z,10.05
2022-08-25T12:16:36.417Z,10.38
2022-08-25T12:19:24.089Z,11.98
2022-08-25T12:21:53.292Z,10.45
2022-08-25T12:24:48.098Z,13.77
2022-08-25T12:27:43.887Z,10.30
2022-08-25T12:30:21.082Z,21.70
2022-08-25T12:33:07.400Z,16.85
2022-08-25T12:35:58.467Z,15.43
2022-08-25T12:38:44.109Z,10.40
2022-08-25T12:41:16.531Z,11.02
2022-08-25T12:43:48.275Z,17.05
2022-08-25T12:46:38.493Z,15.02
2022-08-25T12:49:34.711Z,17.30
2022-08-25T12:52:04.932Z,12.85
2022-08-25T12:54:38.337Z,19.73
2022-08-25T12:57:18.508Z,13.38
2022-08-25T12:59:56.502Z,16.02
2022-08-25T13:02:52.037Z,10.70
2022-08-25T13:05:41.472Z,18.77
2022-08-25T13:08:27.258Z,13.57
2022-08-25T13:11:46.550Z,14.38
2022-08-25T13:14:26.756Z,15.70
2022-08-25T13:16:57.110Z,12.00
2022-08-25T13:19:25.780Z,16.10
2022-08-25T13:21:55.493Z,19.83
2022-08-25T13:24:27.284Z,13.43
2022-08-25T13:26:57.779Z,19.60
2022-08-25T13:29:37.750Z,13.80
2022-08-25T13:32:14.393Z,14.43
2022-08-25T13:34:43.833Z,14.93
2022-08-25T13:37:32.438Z,13.48
2022-08-25T13:40:28.670Z,15.20
2022-08-25T13:43:02.809Z,10.02
2022-08-25T13:45:40.256Z,15.32
2022-08-25T13:48:22.837Z,11.57
2022-08-25T13:50:52.883Z,18.08
2022-08-25T13:53:26.416Z,13.45
2022-08-25T13:55:57.427Z,12.80
2022-08-25T13:58:45.207Z,19.23
2022-08-25T14:01:45.137Z,9.15
2022-08-25T14:04:51.559Z,11.35
2022-08-25T14:07:21.067Z,7.95
2022-08-25T14:09:52.999Z,8.82
2022-08-25T14:12:45.164Z,12.52
2022-08-25T14:15:18.661Z,11.35
2022-08-25T14:18:20.226Z,16.23
2022-08-25T14:20:56.587Z,14.80
2022-08-25T14:23:27.895Z,16.85
2022-08-25T14:25:58.087Z,12.07
2022-08-25T14:28:32.188Z,13.25
2022-08-25T14:31:05.124Z,14.23
2022-08-25T14:33:39.444Z,12.65
2022-08-25T14:36:07.790Z,14.07
2022-08-25T14:38:39.098Z,14.20
2022-08-25T14:41:11.447Z,12.75
2022-08-25T14:43:39.116Z,10.13
2022-08-25T14:46:20.966Z,13.13
2022-08-25T14:48:55.575Z,10.90
2022-08-25T14:51:24.834Z,12.27
2022-08-25T14:53:55.224Z,17.33
2022-08-25T14:56:22.387Z,15.13
2022-08-25T14:58:51.536Z,15.77
2022-08-25T15:01:28.741Z,13.52
2022-08-25T15:04:08.234Z,15.40
2022-08-25T15:06:37.273Z,11.55
2022-08-25T15:09:11.289Z,15.38
2022-08-25T15:11:44.979Z,16.25
2022-08-25T15:14:15.820Z,6.28
2022-08-25T15:16:57.011Z,12.05
2022-08-25T15:19:27.191Z,10.85
2022-08-25T15:21:57.997Z,13.15
2022-08-25T15:24:28.296Z,12.95
2022-08-25T15:27:01.368Z,9.93
2022-08-25T15:29:30.653Z,10.52
2022-08-25T15:32:00.531Z,11.00
2022-08-25T15:34:28.649Z,17.48
2022-08-25T15:36:58.050Z,15.13
2022-08-25T15:39:27.739Z,12.02
2022-08-25T15:41:57.330Z,11.55
2022-08-25T15:44:28.987Z,21.13
2022-08-25T15:46:57.143Z,18.98
2022-08-25T15:49:24.524Z,13.15
2022-08-25T15:51:56.151Z,12.02
2022-08-25T15:54:26.860Z,10.73
2022-08-25T15:56:55.997Z,10.02
2022-08-25T15:59:25.325Z,12.85
2022-08-25T16:01:55.919Z,11.80
2022-08-25T16:04:25.174Z,13.95
2022-08-25T16:06:53.826Z,11.35
2022-08-25T16:09:23.732Z,14.57
2022-08-25T16:11:56.486Z,8.15
2022-08-25T16:14:24.951Z,9.63
2022-08-25T16:16:58.680Z,10.07
2022-08-25T16:19:29.249Z,10.20
2022-08-25T16:21:57.509Z,15.07
2022-08-25T16:24:25.715Z,14.05
2022-08-25T16:26:55.907Z,11.00
2022-08-25T16:29:24.075Z,15.88
2022-08-25T16:31:53.535Z,14.45
2022-08-25T16:34:24.773Z,11.77
2022-08-25T16:36:56.222Z,8.65
2022-08-25T16:39:24.492Z,10.35
2022-08-25T16:41:52.880Z,11.10
2022-08-25T16:44:22.577Z,14.27
2022-08-25T16:46:54.831Z,17.10
2022-08-25T16:49:24.265Z,16.90
2022-08-25T16:51:57.118Z,9.98
2022-08-25T16:54:45.329Z,14.65
2022-08-25T16:57:14.050Z,15.82
2022-08-25T16:59:43.806Z,22.15
2022-08-25T17:02:11.731Z,13.85
2022-08-25T17:04:41.105Z,16.15
2022-08-25T17:07:08.360Z,9.77
2022-08-25T17:09:36.362Z,17.88
2022-08-25T17:12:05.514Z,17.30
2022-08-25T17:14:32.916Z,15.02
2022-08-25T17:17:00.655Z,15.65
2022-08-25T17:19:28.632Z,13.40
2022-08-25T17:21:55.810Z,16.30
2022-08-25T17:24:29.545Z,16.48
2022-08-25T17:27:00.060Z,17.33
2022-08-25T17:29:28.787Z,14.52
2022-08-25T17:31:55.968Z,15.77
2022-08-25T17:34:23.986Z,17.20
2022-08-25T17:36:52.309Z,20.25
2022-08-25T17:39:22.328Z,14.90
2022-08-25T17:41:50.990Z,18.38
2022-08-25T17:44:18.647Z,16.13
2022-08-25T17:46:48.032Z,20.85
2022-08-25T17:49:17.266Z,27.58
2022-08-25T17:51:45.241Z,19.80
2022-08-25T17:54:13.513Z,16.52
2022-08-25T17:56:41.484Z,20.83
2022-08-25T17:59:08.955Z,16.25
2022-08-25T18:01:40.693Z,16.85
2022-08-25T18:04:14.295Z,19.27
2022-08-25T18:06:44.395Z,16.17
2022-08-25T18:09:12.740Z,10.75
2022-08-25T18:11:40.772Z,15.50
2022-08-25T18:14:10.740Z,16.33
2022-08-25T18:16:38.588Z,16.20
2022-08-25T18:19:09.464Z,13.85
2022-08-25T18:21:37.449Z,17.90
2022-08-25T18:24:06.601Z,16.30
2022-08-25T18:26:34.372Z,18.55
2022-08-25T18:29:02.669Z,15.75
2022-08-25T18:31:30.258Z,20.02
2022-08-25T18:33:58.239Z,20.65
2022-08-25T18:36:25.679Z,14.25
2022-08-25T18:39:11.332Z,16.20
2022-08-25T18:41:42.589Z,14.30
2022-08-25T18:44:11.127Z,11.43
2022-08-25T18:46:40.077Z,17.90
2022-08-25T18:49:07.532Z,17.80
2022-08-25T18:51:36.790Z,10.68
2022-08-25T18:54:04.782Z,16.30
2022-08-25T18:56:33.501Z,10.70
2022-08-25T18:59:01.463Z,15.80
2022-08-25T19:01:30.741Z,16.30
2022-08-25T19:03:58.020Z,12.95
2022-08-25T19:06:25.301Z,12.38
2022-08-25T19:08:52.683Z,8.82
2022-08-25T19:11:22.188Z,13.98
2022-08-25T19:13:50.969Z,10.02
2022-08-25T19:16:32.397Z,12.23
2022-08-25T19:19:04.054Z,10.70
2022-08-25T19:21:34.790Z,13.85
2022-08-25T19:24:03.189Z,7.90
2022-08-25T19:26:31.036Z,7.18
2022-08-25T19:28:58.341Z,8.70
2022-08-25T19:31:27.884Z,5.18
2022-08-25T19:34:01.604Z,8.98
2022-08-25T19:36:30.044Z,6.97
2022-08-25T19:39:00.273Z,7.63
2022-08-25T19:41:29.558Z,8.18
2022-08-25T19:43:57.709Z,6.93
2022-08-25T19:46:32.926Z,12.90
2022-08-25T19:49:07.977Z,9.43
2022-08-25T19:51:44.133Z,9.82
2022-08-25T19:54:16.082Z,11.45
2022-08-25T19:56:54.546Z,3.88
2022-08-25T19:59:40.479Z,10.55
2022-08-25T20:02:18.892Z,7.05
2022-08-25T20:04:49.489Z,13.23
2022-08-25T20:07:21.382Z,10.50
2022-08-25T20:09:49.894Z,6.43
2022-08-25T20:12:18.485Z,8.43
2022-08-25T20:14:46.927Z,3.40
2022-08-25T20:17:23.577Z,7.57
2022-08-25T20:19:56.459Z,6.25
2022-08-25T20:22:26.922Z,3.03
2022-08-25T20:24:59.424Z,10.98
2022-08-25T20:27:39.372Z,4.43
2022-08-25T20:30:12.131Z,9.57
2022-08-25T20:32:39.687Z,8.07
2022-08-25T20:35:09.512Z,7.05
2022-08-25T20:37:42.824Z,4.82
2022-08-25T20:40:12.482Z,5.05
2022-08-25T20:42:40.523Z,7.45
2022-08-25T20:45:09.805Z,7.28
2022-08-25T20:47:37.060Z,4.95
2022-08-25T20:50:07.000Z,8.55
2022-08-25T20:52:35.136Z,4.93
2022-08-25T20:55:02.607Z,8.68
2022-08-25T20:57:30.432Z,9.25
2022-08-25T20:59:58.439Z,6.43
2022-08-25T21:02:27.404Z,6.68
2022-08-25T21:04:56.975Z,6.32
2022-08-25T21:07:24.520Z,6.32
2022-08-25T21:09:53.110Z,6.57
2022-08-25T21:12:20.739Z,8.23
2022-08-25T21:14:48.728Z,6.40
2022-08-25T21:17:19.273Z,9.90
2022-08-25T21:22:16.354Z,7.35
2022-08-25T21:24:44.641Z,6.18
2022-08-25T21:27:11.846Z,9.45
2022-08-25T21:29:39.233Z,6.47
2022-08-25T21:32:12.188Z,5.93
2022-08-25T21:34:39.626Z,10.77
2022-08-25T21:37:07.323Z,7.93
2022-08-25T21:39:35.357Z,10.82
2022-08-25T21:42:04.210Z,7.57
2022-08-25T21:44:31.408Z,11.50
2022-08-25T21:46:58.647Z,9.55
2022-08-25T21:49:26.110Z,6.40
2022-08-25T21:52:00.301Z,4.55
2022-08-25T21:54:28.771Z,9.88
2022-08-25T21:57:03.528Z,8.68
2022-08-25T21:59:33.595Z,5.45
2022-08-25T22:02:03.946Z,7.75
2022-08-25T22:04:32.393Z,8.63
2022-08-25T22:07:00.387Z,7.50
2022-08-25T22:09:28.733Z,8.70
2022-08-25T22:11:57.647Z,10.00
2022-08-25T22:14:26.920Z,5.50
2022-08-25T22:16:55.539Z,8.27
2022-08-25T22:19:23.908Z,7.72
2022-08-25T22:21:53.059Z,7.43
2022-08-25T22:24:21.648Z,5.97
2022-08-25T22:26:49.400Z,10.27
2022-08-25T22:29:25.474Z,5.45
2022-08-25T22:32:00.670Z,8.80
2022-08-25T22:34:33.091Z,9.40
2022-08-25T22:37:02.356Z,10.13
2022-08-25T22:39:34.191Z,7.43
2022-08-25T22:42:03.116Z,7.20
2022-08-25T22:44:30.676Z,11.77
2022-08-25T22:46:57.926Z,8.77
2022-08-25T22:49:28.631Z,5.43
2022-08-25T22:51:56.108Z,4.78
2022-08-25T22:54:23.914Z,8.70
2022-08-25T22:56:54.836Z,8.60
2022-08-25T22:59:22.566Z,8.77
2022-08-25T23:01:52.658Z,5.07
2022-08-25T23:04:22.439Z,7.90
2022-08-25T23:06:50.386Z,7.25
2022-08-25T23:09:18.100Z,8.13
2022-08-25T23:11:45.380Z,8.35
2022-08-25T23:14:12.873Z,7.03
2022-08-25T23:16:42.515Z,7.75
2022-08-25T23:19:13.925Z,9.90
2022-08-25T23:22:01.387Z,7.10
2022-08-25T23:24:30.748Z,9.38
2022-08-25T23:27:00.732Z,7.63
2022-08-25T23:29:28.691Z,5.43
2022-08-25T23:31:58.921Z,6.38
2022-08-25T23:34:27.004Z,3.95
2022-08-25T23:36:57.691Z,7.53
2022-08-25T23:39:25.408Z,7.60
2022-08-25T23:41:53.001Z,6.97
2022-08-25T23:44:21.982Z,3.97
2022-08-25T23:46:49.894Z,7.65
2022-08-25T23:49:21.351Z,8.73
2022-08-25T23:51:51.724Z,7.80
2022-08-25T23:54:20.917Z,5.47
2022-08-25T23:56:52.205Z,8.95
2022-08-25T23:59:24.543Z,5.95
